Felker Army Air Field
KFAF : now visible

Airfield :











YOU CAN JOIN US ON...

 
LOGIN :

Register | Disclaimer

   EN    FR    IT 

 









Legend :    VFR   Marginal VFR   IFR   Intensive IFR   Very Intensive IFR
Visi :
Ceiling :
>= 8 km
>= 3000ft
5 to 8 km
1000 to 3000 ft
1500m to 5 km
500 to 1000 ft
800 to 1500m
200 to 500 ft
< 800m
< 200 ft
Symbols :   Thunderstorms  Fog  Heavy snow  Heavy precipitations  Wind > 20 kt







- Airport Elevation : 12 ft


KFAF - Felker Army Air Field

CURRENT METAR :
  • 171156Z 19006KT 10SM FEW200 27/23 A3002 RMK AO2A SLP169 T02700234 10270 20257 51003 $

EXPIRED METARs :
  • 171056Z 21006KT 10SM SCT200 26/23 A3002 RMK AO2A SLP169 T02590228 $
  • 170956Z 19005KT 10SM FEW150 26/22 A3001 RMK AO2A SLP165 T02570224 $

TAF TAF KFAF
Valid from the 17 at 10:00 until the 18 at 16:00 UTC


171000Z 1710/1816 20009KT 9999 SCT050 SCT200 QNH2998INS
BECMG 1715/1716 22010G16KT 9999 SCT050 BKN200 QNH2985INS
TEMPO 1719/1723 VRB15G25KT 8000 -TSRA BKN040CB
BECMG 1811/1812 22009KT 8000 -SHRA BKN035 QNH2987INS TX36/1719Z TN26/1710Z
KZDC FIR / North America



MET'MAP, your aeronautical weather chart ! - Copyright ORBIFLY December 2007 - Disclaimer

ORBIFLY MET'MAP TEAM :

Programming & Development : Alexandra Zaïnal
Concept & Development : Baudouin d'Aumeries
Co-Development & Prog : Marc-Olivier Méhu
Technical & hardware support : Manuel Goepfert

Contact : metmap@orbifly.com




SOURCES & CREDITS :

   NOAA       Earth
Advisory